createdAt,value
2018-11-22T12:24:01.417Z,56.80
2018-11-22T12:32:22.422Z,57.01
2018-11-22T12:40:43.426Z,56.59
2018-11-22T12:49:04.431Z,55.99
2018-11-22T12:57:25.457Z,56.63
2018-11-22T13:05:46.439Z,56.15
2018-11-22T13:14:07.526Z,55.86
2018-11-22T13:22:28.515Z,56.78
2018-11-22T13:30:49.520Z,56.26
2018-11-22T13:39:10.637Z,56.51
2018-11-22T13:47:31.637Z,55.44
2018-11-22T13:55:52.657Z,56.05
2018-11-22T14:04:13.676Z,55.63
2018-11-22T14:12:34.682Z,56.83
2018-11-22T14:20:55.672Z,56.54
2018-11-22T14:29:16.674Z,56.32
2018-11-22T14:37:37.679Z,57.12
2018-11-22T14:45:58.677Z,57.18
2018-11-22T14:54:19.662Z,57.25
2018-11-22T15:02:40.681Z,56.89
2018-11-22T15:11:01.682Z,57.92
2018-11-22T15:19:22.711Z,57.77
2018-11-22T15:27:43.717Z,57.96
2018-11-22T15:36:04.695Z,58.16
2018-11-22T15:44:25.695Z,58.83
2018-11-22T15:52:46.722Z,58.12
2018-11-22T16:01:07.801Z,58.94
2018-11-22T16:09:28.801Z,59.36
2018-11-22T16:17:50.063Z,60.29
2018-11-22T16:26:11.097Z,60.16
2018-11-22T16:34:32.098Z,60.87
2018-11-22T16:42:53.090Z,61.08
2018-11-22T16:51:14.125Z,60.50
2018-11-22T16:59:35.188Z,60.78
2018-11-22T17:07:56.205Z,61.77
2018-11-22T17:16:17.224Z,61.54
2018-11-22T17:24:38.242Z,61.21
2018-11-22T17:32:59.273Z,61.35
2018-11-22T17:41:20.313Z,62.17
2018-11-22T17:49:41.442Z,62.42
2018-11-22T17:58:02.466Z,61.91
2018-11-22T18:06:23.480Z,61.77
2018-11-22T18:14:44.573Z,62.07
2018-11-22T18:23:06.497Z,63.09
2018-11-22T18:31:26.660Z,62.71
2018-11-22T18:39:47.643Z,61.65
2018-11-22T18:48:08.653Z,62.65
2018-11-22T18:56:29.646Z,61.87
2018-11-22T19:04:50.643Z,62.30
2018-11-22T19:13:11.719Z,62.34
2018-11-22T19:21:32.734Z,62.79
2018-11-22T19:29:53.768Z,62.90
2018-11-22T19:38:14.786Z,63.92
2018-11-22T19:46:35.788Z,62.50
2018-11-22T19:54:56.990Z,62.79
2018-11-22T20:03:18.013Z,62.63
2018-11-22T20:11:39.007Z,62.80
2018-11-22T20:20:00.020Z,62.53
2018-11-22T20:28:21.016Z,63.01
2018-11-22T20:36:42.014Z,63.36
2018-11-22T20:45:03.010Z,63.60
2018-11-22T20:53:24.017Z,63.08
2018-11-22T21:01:45.069Z,63.90
2018-11-22T21:10:06.071Z,63.33
2018-11-22T21:18:27.053Z,63.40
2018-11-22T21:26:48.070Z,63.22
2018-11-22T21:35:09.066Z,63.21
2018-11-22T21:43:30.070Z,63.54
2018-11-22T21:51:51.107Z,63.34
2018-11-22T22:00:12.107Z,63.64
2018-11-22T22:08:33.194Z,63.53
2018-11-22T22:16:54.205Z,62.99
2018-11-22T22:25:15.317Z,63.31
2018-11-22T22:33:36.327Z,63.05
2018-11-22T22:41:57.341Z,63.17
2018-11-22T22:50:18.319Z,63.31
2018-11-22T22:58:39.299Z,63.48
2018-11-22T23:07:00.334Z,62.89
2018-11-22T23:15:21.316Z,63.05
2018-11-22T23:23:42.338Z,63.54
2018-11-22T23:32:03.353Z,63.39
2018-11-22T23:40:24.358Z,63.36
2018-11-22T23:48:45.363Z,63.87
2018-11-22T23:57:06.379Z,63.94
